sensor_id;sensor_type;location;lat;lon;timestamp;P1;durP1;ratioP1;P2;durP2;ratioP2
19089;SDS011;9677;50.656;13.064;2023-11-19T00:00:30;10.90;;;10.00;;
19089;SDS011;9677;50.656;13.064;2023-11-19T00:03:00;11.23;;;10.33;;
19089;SDS011;9677;50.656;13.064;2023-11-19T00:05:28;10.67;;;9.67;;
19089;SDS011;9677;50.656;13.064;2023-11-19T00:07:56;10.97;;;10.07;;
19089;SDS011;9677;50.656;13.064;2023-11-19T00:10:24;10.67;;;9.77;;
19089;SDS011;9677;50.656;13.064;2023-11-19T00:12:53;10.47;;;9.57;;
19089;SDS011;9677;50.656;13.064;2023-11-19T00:15:23;10.97;;;10.07;;
19089;SDS011;9677;50.656;13.064;2023-11-19T00:17:51;10.87;;;9.97;;
19089;SDS011;9677;50.656;13.064;2023-11-19T00:20:21;11.07;;;10.17;;
19089;SDS011;9677;50.656;13.064;2023-11-19T00:22:49;10.70;;;9.80;;
19089;SDS011;9677;50.656;13.064;2023-11-19T00:25:19;11.23;;;10.27;;
19089;SDS011;9677;50.656;13.064;2023-11-19T00:27:49;10.27;;;9.47;;
19089;SDS011;9677;50.656;13.064;2023-11-19T00:30:18;10.40;;;9.60;;
19089;SDS011;9677;50.656;13.064;2023-11-19T00:32:46;10.30;;;9.50;;
19089;SDS011;9677;50.656;13.064;2023-11-19T00:35:14;10.63;;;9.83;;
19089;SDS011;9677;50.656;13.064;2023-11-19T00:37:44;10.50;;;9.70;;
19089;SDS011;9677;50.656;13.064;2023-11-19T00:40:14;11.13;;;10.23;;
19089;SDS011;9677;50.656;13.064;2023-11-19T00:42:45;11.17;;;10.27;;
19089;SDS011;9677;50.656;13.064;2023-11-19T00:45:14;10.37;;;9.57;;
19089;SDS011;9677;50.656;13.064;2023-11-19T00:47:42;10.47;;;9.57;;
19089;SDS011;9677;50.656;13.064;2023-11-19T00:50:10;10.87;;;9.97;;
19089;SDS011;9677;50.656;13.064;2023-11-19T00:52:39;10.63;;;9.73;;
19089;SDS011;9677;50.656;13.064;2023-11-19T00:55:09;10.87;;;9.97;;
19089;SDS011;9677;50.656;13.064;2023-11-19T00:57:39;11.20;;;10.30;;
19089;SDS011;9677;50.656;13.064;2023-11-19T01:00:08;10.37;;;9.57;;
19089;SDS011;9677;50.656;13.064;2023-11-19T01:02:45;10.87;;;9.97;;
19089;SDS011;9677;50.656;13.064;2023-11-19T01:05:17;10.97;;;10.07;;
19089;SDS011;9677;50.656;13.064;2023-11-19T01:07:48;11.00;;;10.10;;
19089;SDS011;9677;50.656;13.064;2023-11-19T01:10:20;10.97;;;10.07;;
19089;SDS011;9677;50.656;13.064;2023-11-19T01:12:48;11.00;;;10.10;;
19089;SDS011;9677;50.656;13.064;2023-11-19T01:15:16;10.53;;;9.63;;
19089;SDS011;9677;50.656;13.064;2023-11-19T01:17:46;10.90;;;10.00;;
19089;SDS011;9677;50.656;13.064;2023-11-19T01:20:19;10.80;;;9.80;;
19089;SDS011;9677;50.656;13.064;2023-11-19T01:22:48;10.37;;;9.57;;
19089;SDS011;9677;50.656;13.064;2023-11-19T01:25:16;10.23;;;9.43;;
19089;SDS011;9677;50.656;13.064;2023-11-19T01:27:46;10.77;;;9.87;;
19089;SDS011;9677;50.656;13.064;2023-11-19T01:30:16;10.27;;;9.47;;
19089;SDS011;9677;50.656;13.064;2023-11-19T01:32:46;10.27;;;9.47;;
19089;SDS011;9677;50.656;13.064;2023-11-19T01:35:14;10.60;;;9.70;;
19089;SDS011;9677;50.656;13.064;2023-11-19T01:37:42;11.23;;;10.33;;
19089;SDS011;9677;50.656;13.064;2023-11-19T01:40:11;10.20;;;9.40;;
19089;SDS011;9677;50.656;13.064;2023-11-19T01:42:39;10.50;;;9.70;;
19089;SDS011;9677;50.656;13.064;2023-11-19T01:45:10;10.13;;;9.33;;
19089;SDS011;9677;50.656;13.064;2023-11-19T01:47:55;10.60;;;9.80;;
19089;SDS011;9677;50.656;13.064;2023-11-19T01:50:24;10.37;;;9.50;;
19089;SDS011;9677;50.656;13.064;2023-11-19T01:52:53;10.43;;;9.63;;
19089;SDS011;9677;50.656;13.064;2023-11-19T01:55:24;10.97;;;10.07;;
19089;SDS011;9677;50.656;13.064;2023-11-19T01:57:55;10.33;;;9.53;;
19089;SDS011;9677;50.656;13.064;2023-11-19T02:00:30;10.17;;;9.37;;
19089;SDS011;9677;50.656;13.064;2023-11-19T02:03:01;10.60;;;9.80;;
19089;SDS011;9677;50.656;13.064;2023-11-19T02:05:30;10.57;;;9.73;;
19089;SDS011;9677;50.656;13.064;2023-11-19T02:07:59;10.30;;;9.50;;
19089;SDS011;9677;50.656;13.064;2023-11-19T02:10:27;9.97;;;9.17;;
19089;SDS011;9677;50.656;13.064;2023-11-19T02:12:55;10.73;;;9.70;;
19089;SDS011;9677;50.656;13.064;2023-11-19T02:15:33;10.57;;;9.70;;
19089;SDS011;9677;50.656;13.064;2023-11-19T02:20:46;10.43;;;9.63;;
19089;SDS011;9677;50.656;13.064;2023-11-19T02:23:16;10.33;;;9.53;;
19089;SDS011;9677;50.656;13.064;2023-11-19T02:25:47;10.90;;;10.00;;
19089;SDS011;9677;50.656;13.064;2023-11-19T02:28:33;10.00;;;9.20;;
19089;SDS011;9677;50.656;13.064;2023-11-19T02:31:03;10.40;;;9.60;;
19089;SDS011;9677;50.656;13.064;2023-11-19T02:33:36;10.20;;;9.40;;
19089;SDS011;9677;50.656;13.064;2023-11-19T02:36:05;9.90;;;9.10;;
19089;SDS011;9677;50.656;13.064;2023-11-19T02:38:35;10.47;;;9.67;;
19089;SDS011;9677;50.656;13.064;2023-11-19T02:41:04;10.63;;;9.83;;
19089;SDS011;9677;50.656;13.064;2023-11-19T02:43:36;10.20;;;9.40;;
19089;SDS011;9677;50.656;13.064;2023-11-19T02:46:05;10.33;;;9.53;;
19089;SDS011;9677;50.656;13.064;2023-11-19T02:48:37;10.83;;;9.93;;
19089;SDS011;9677;50.656;13.064;2023-11-19T02:51:05;10.43;;;9.63;;
19089;SDS011;9677;50.656;13.064;2023-11-19T02:53:36;10.63;;;9.83;;
19089;SDS011;9677;50.656;13.064;2023-11-19T02:56:06;10.27;;;9.47;;
19089;SDS011;9677;50.656;13.064;2023-11-19T02:58:47;10.03;;;9.23;;
19089;SDS011;9677;50.656;13.064;2023-11-19T03:01:21;10.13;;;9.33;;
19089;SDS011;9677;50.656;13.064;2023-11-19T03:03:56;10.10;;;9.30;;
19089;SDS011;9677;50.656;13.064;2023-11-19T03:06:26;10.20;;;9.40;;
19089;SDS011;9677;50.656;13.064;2023-11-19T03:08:55;10.47;;;9.63;;
19089;SDS011;9677;50.656;13.064;2023-11-19T03:11:23;10.43;;;9.63;;
19089;SDS011;9677;50.656;13.064;2023-11-19T03:13:53;10.30;;;9.50;;
19089;SDS011;9677;50.656;13.064;2023-11-19T03:16:21;10.73;;;9.87;;
19089;SDS011;9677;50.656;13.064;2023-11-19T03:18:49;10.73;;;9.83;;
19089;SDS011;9677;50.656;13.064;2023-11-19T03:21:18;10.27;;;9.47;;
19089;SDS011;9677;50.656;13.064;2023-11-19T03:23:47;10.67;;;9.80;;
19089;SDS011;9677;50.656;13.064;2023-11-19T03:26:15;10.93;;;10.03;;
19089;SDS011;9677;50.656;13.064;2023-11-19T03:28:44;10.30;;;9.50;;
19089;SDS011;9677;50.656;13.064;2023-11-19T03:31:13;9.80;;;9.00;;
19089;SDS011;9677;50.656;13.064;2023-11-19T03:33:41;10.77;;;9.87;;
19089;SDS011;9677;50.656;13.064;2023-11-19T03:36:10;10.57;;;9.77;;
19089;SDS011;9677;50.656;13.064;2023-11-19T03:38:39;10.57;;;9.77;;
19089;SDS011;9677;50.656;13.064;2023-11-19T03:41:11;10.80;;;9.90;;
19089;SDS011;9677;50.656;13.064;2023-11-19T03:43:40;10.27;;;9.47;;
19089;SDS011;9677;50.656;13.064;2023-11-19T03:46:19;10.57;;;9.77;;
19089;SDS011;9677;50.656;13.064;2023-11-19T03:48:48;10.00;;;9.20;;
19089;SDS011;9677;50.656;13.064;2023-11-19T03:51:17;10.13;;;9.33;;
19089;SDS011;9677;50.656;13.064;2023-11-19T03:53:45;9.80;;;9.00;;
19089;SDS011;9677;50.656;13.064;2023-11-19T03:56:13;10.10;;;9.30;;
19089;SDS011;9677;50.656;13.064;2023-11-19T03:58:41;10.23;;;9.43;;
19089;SDS011;9677;50.656;13.064;2023-11-19T04:01:13;10.10;;;9.30;;
19089;SDS011;9677;50.656;13.064;2023-11-19T04:03:42;10.07;;;9.27;;
19089;SDS011;9677;50.656;13.064;2023-11-19T04:06:13;10.27;;;9.47;;
19089;SDS011;9677;50.656;13.064;2023-11-19T04:08:42;10.33;;;9.53;;
19089;SDS011;9677;50.656;13.064;2023-11-19T04:11:10;10.23;;;9.43;;
19089;SDS011;9677;50.656;13.064;2023-11-19T04:13:39;9.90;;;9.10;;
19089;SDS011;9677;50.656;13.064;2023-11-19T04:16:07;10.77;;;9.87;;
19089;SDS011;9677;50.656;13.064;2023-11-19T04:18:36;11.33;;;10.20;;
19089;SDS011;9677;50.656;13.064;2023-11-19T04:21:06;9.90;;;9.10;;
19089;SDS011;9677;50.656;13.064;2023-11-19T04:23:35;10.33;;;9.53;;
19089;SDS011;9677;50.656;13.064;2023-11-19T04:26:03;10.60;;;9.80;;
19089;SDS011;9677;50.656;13.064;2023-11-19T04:28:36;10.33;;;9.53;;
19089;SDS011;9677;50.656;13.064;2023-11-19T04:31:04;10.10;;;9.30;;
19089;SDS011;9677;50.656;13.064;2023-11-19T04:33:33;10.30;;;9.50;;
19089;SDS011;9677;50.656;13.064;2023-11-19T04:36:01;10.60;;;9.70;;
19089;SDS011;9677;50.656;13.064;2023-11-19T04:38:31;10.60;;;9.80;;
19089;SDS011;9677;50.656;13.064;2023-11-19T04:40:59;10.20;;;9.40;;
19089;SDS011;9677;50.656;13.064;2023-11-19T04:43:27;10.43;;;9.53;;
19089;SDS011;9677;50.656;13.064;2023-11-19T04:45:56;10.10;;;9.30;;
19089;SDS011;9677;50.656;13.064;2023-11-19T04:48:24;10.53;;;9.73;;
19089;SDS011;9677;50.656;13.064;2023-11-19T04:50:52;10.20;;;9.40;;
19089;SDS011;9677;50.656;13.064;2023-11-19T04:53:20;10.67;;;9.80;;
19089;SDS011;9677;50.656;13.064;2023-11-19T04:55:50;10.07;;;9.27;;
19089;SDS011;9677;50.656;13.064;2023-11-19T04:58:19;9.90;;;9.10;;
19089;SDS011;9677;50.656;13.064;2023-11-19T05:00:47;10.20;;;9.37;;
19089;SDS011;9677;50.656;13.064;2023-11-19T05:03:15;9.97;;;9.17;;
19089;SDS011;9677;50.656;13.064;2023-11-19T05:05:44;10.30;;;9.50;;
19089;SDS011;9677;50.656;13.064;2023-11-19T05:08:12;10.47;;;9.57;;
19089;SDS011;9677;50.656;13.064;2023-11-19T05:10:40;9.90;;;9.10;;
19089;SDS011;9677;50.656;13.064;2023-11-19T05:13:10;10.40;;;9.50;;
19089;SDS011;9677;50.656;13.064;2023-11-19T05:15:39;10.03;;;9.23;;
19089;SDS011;9677;50.656;13.064;2023-11-19T05:18:07;10.40;;;9.60;;
19089;SDS011;9677;50.656;13.064;2023-11-19T05:20:35;10.23;;;9.43;;
19089;SDS011;9677;50.656;13.064;2023-11-19T05:23:03;10.13;;;9.33;;
19089;SDS011;9677;50.656;13.064;2023-11-19T05:25:31;10.17;;;9.37;;
19089;SDS011;9677;50.656;13.064;2023-11-19T05:28:00;9.83;;;9.03;;
19089;SDS011;9677;50.656;13.064;2023-11-19T05:30:29;9.90;;;9.10;;
19089;SDS011;9677;50.656;13.064;2023-11-19T05:32:57;10.60;;;9.70;;
19089;SDS011;9677;50.656;13.064;2023-11-19T05:35:27;10.37;;;9.47;;
19089;SDS011;9677;50.656;13.064;2023-11-19T05:37:55;10.17;;;9.37;;
19089;SDS011;9677;50.656;13.064;2023-11-19T05:40:23;10.30;;;9.50;;
19089;SDS011;9677;50.656;13.064;2023-11-19T05:42:51;10.23;;;9.43;;
19089;SDS011;9677;50.656;13.064;2023-11-19T05:45:19;12.03;;;9.53;;
19089;SDS011;9677;50.656;13.064;2023-11-19T05:47:49;9.87;;;9.07;;
19089;SDS011;9677;50.656;13.064;2023-11-19T05:50:18;9.90;;;9.10;;
19089;SDS011;9677;50.656;13.064;2023-11-19T05:52:46;10.07;;;9.27;;
19089;SDS011;9677;50.656;13.064;2023-11-19T05:55:14;9.70;;;8.90;;
19089;SDS011;9677;50.656;13.064;2023-11-19T05:57:43;9.73;;;8.97;;
19089;SDS011;9677;50.656;13.064;2023-11-19T06:00:13;10.10;;;9.30;;
19089;SDS011;9677;50.656;13.064;2023-11-19T06:02:42;9.97;;;9.17;;
19089;SDS011;9677;50.656;13.064;2023-11-19T06:05:12;10.07;;;9.27;;
19089;SDS011;9677;50.656;13.064;2023-11-19T06:07:40;10.33;;;9.53;;
19089;SDS011;9677;50.656;13.064;2023-11-19T06:10:08;10.20;;;9.30;;
19089;SDS011;9677;50.656;13.064;2023-11-19T06:12:37;9.60;;;8.90;;
19089;SDS011;9677;50.656;13.064;2023-11-19T06:15:08;10.03;;;9.23;;
19089;SDS011;9677;50.656;13.064;2023-11-19T06:17:37;10.37;;;9.47;;
19089;SDS011;9677;50.656;13.064;2023-11-19T06:20:06;10.00;;;9.20;;
19089;SDS011;9677;50.656;13.064;2023-11-19T06:22:37;10.47;;;9.60;;
19089;SDS011;9677;50.656;13.064;2023-11-19T06:25:06;9.83;;;9.07;;
19089;SDS011;9677;50.656;13.064;2023-11-19T06:27:35;9.97;;;9.17;;
19089;SDS011;9677;50.656;13.064;2023-11-19T06:30:03;10.10;;;9.30;;
19089;SDS011;9677;50.656;13.064;2023-11-19T06:32:33;10.03;;;9.23;;
19089;SDS011;9677;50.656;13.064;2023-11-19T06:35:01;10.13;;;9.33;;
19089;SDS011;9677;50.656;13.064;2023-11-19T06:37:30;10.03;;;9.23;;
19089;SDS011;9677;50.656;13.064;2023-11-19T06:40:00;10.10;;;9.30;;
19089;SDS011;9677;50.656;13.064;2023-11-19T06:42:29;9.87;;;9.07;;
19089;SDS011;9677;50.656;13.064;2023-11-19T06:44:57;10.03;;;9.23;;
19089;SDS011;9677;50.656;13.064;2023-11-19T06:47:25;9.60;;;8.90;;
19089;SDS011;9677;50.656;13.064;2023-11-19T06:49:54;10.27;;;9.47;;
19089;SDS011;9677;50.656;13.064;2023-11-19T06:52:23;9.60;;;8.80;;
19089;SDS011;9677;50.656;13.064;2023-11-19T06:54:51;9.90;;;9.10;;
19089;SDS011;9677;50.656;13.064;2023-11-19T06:57:34;9.97;;;9.17;;
19089;SDS011;9677;50.656;13.064;2023-11-19T07:00:02;9.80;;;9.00;;
19089;SDS011;9677;50.656;13.064;2023-11-19T07:02:32;10.13;;;9.33;;
19089;SDS011;9677;50.656;13.064;2023-11-19T07:05:01;10.10;;;9.30;;
19089;SDS011;9677;50.656;13.064;2023-11-19T07:07:30;10.13;;;9.33;;
19089;SDS011;9677;50.656;13.064;2023-11-19T07:09:59;10.17;;;9.37;;
19089;SDS011;9677;50.656;13.064;2023-11-19T07:12:28;9.93;;;9.13;;
19089;SDS011;9677;50.656;13.064;2023-11-19T07:14:58;10.23;;;9.43;;
19089;SDS011;9677;50.656;13.064;2023-11-19T07:17:26;9.93;;;9.13;;
19089;SDS011;9677;50.656;13.064;2023-11-19T07:19:54;9.60;;;8.83;;
19089;SDS011;9677;50.656;13.064;2023-11-19T07:22:25;9.70;;;8.93;;
19089;SDS011;9677;50.656;13.064;2023-11-19T07:24:56;10.00;;;9.20;;
19089;SDS011;9677;50.656;13.064;2023-11-19T07:27:25;10.30;;;9.50;;
19089;SDS011;9677;50.656;13.064;2023-11-19T07:29:54;9.83;;;8.93;;
19089;SDS011;9677;50.656;13.064;2023-11-19T07:32:24;9.77;;;8.97;;
19089;SDS011;9677;50.656;13.064;2023-11-19T07:34:52;10.23;;;9.43;;
19089;SDS011;9677;50.656;13.064;2023-11-19T07:37:20;9.70;;;8.90;;
19089;SDS011;9677;50.656;13.064;2023-11-19T07:39:48;9.67;;;8.87;;
19089;SDS011;9677;50.656;13.064;2023-11-19T07:42:17;10.07;;;9.27;;
19089;SDS011;9677;50.656;13.064;2023-11-19T07:44:45;9.90;;;9.07;;
19089;SDS011;9677;50.656;13.064;2023-11-19T07:47:13;9.73;;;8.93;;
19089;SDS011;9677;50.656;13.064;2023-11-19T07:49:42;9.87;;;9.00;;
19089;SDS011;9677;50.656;13.064;2023-11-19T07:52:11;9.73;;;8.93;;
19089;SDS011;9677;50.656;13.064;2023-11-19T07:54:42;9.70;;;8.90;;
19089;SDS011;9677;50.656;13.064;2023-11-19T07:57:10;9.57;;;8.83;;
19089;SDS011;9677;50.656;13.064;2023-11-19T07:59:38;10.00;;;9.20;;
19089;SDS011;9677;50.656;13.064;2023-11-19T08:02:07;10.07;;;9.27;;
19089;SDS011;9677;50.656;13.064;2023-11-19T08:04:35;9.80;;;9.00;;
19089;SDS011;9677;50.656;13.064;2023-11-19T08:07:07;10.10;;;9.30;;
19089;SDS011;9677;50.656;13.064;2023-11-19T08:09:36;10.17;;;9.37;;
19089;SDS011;9677;50.656;13.064;2023-11-19T08:12:04;9.73;;;8.93;;
19089;SDS011;9677;50.656;13.064;2023-11-19T08:14:35;10.07;;;9.27;;
19089;SDS011;9677;50.656;13.064;2023-11-19T08:17:03;9.73;;;8.93;;
19089;SDS011;9677;50.656;13.064;2023-11-19T08:19:32;9.80;;;9.00;;
19089;SDS011;9677;50.656;13.064;2023-11-19T08:22:00;9.73;;;8.93;;
19089;SDS011;9677;50.656;13.064;2023-11-19T08:24:29;9.77;;;8.97;;
19089;SDS011;9677;50.656;13.064;2023-11-19T08:26:58;10.17;;;9.17;;
19089;SDS011;9677;50.656;13.064;2023-11-19T08:29:29;10.17;;;9.20;;
19089;SDS011;9677;50.656;13.064;2023-11-19T08:31:57;10.30;;;9.40;;
19089;SDS011;9677;50.656;13.064;2023-11-19T08:34:28;9.87;;;9.07;;
19089;SDS011;9677;50.656;13.064;2023-11-19T08:36:57;9.70;;;8.90;;
19089;SDS011;9677;50.656;13.064;2023-11-19T08:39:25;9.93;;;9.13;;
19089;SDS011;9677;50.656;13.064;2023-11-19T08:41:54;10.07;;;9.17;;
19089;SDS011;9677;50.656;13.064;2023-11-19T08:44:23;9.60;;;8.80;;
19089;SDS011;9677;50.656;13.064;2023-11-19T08:46:51;9.97;;;9.13;;
19089;SDS011;9677;50.656;13.064;2023-11-19T08:49:20;10.13;;;9.23;;
19089;SDS011;9677;50.656;13.064;2023-11-19T08:51:48;9.93;;;9.03;;
19089;SDS011;9677;50.656;13.064;2023-11-19T08:54:16;10.53;;;9.53;;
19089;SDS011;9677;50.656;13.064;2023-11-19T08:56:46;9.93;;;9.10;;
19089;SDS011;9677;50.656;13.064;2023-11-19T08:59:16;9.63;;;8.83;;
19089;SDS011;9677;50.656;13.064;2023-11-19T09:01:45;10.30;;;9.30;;
19089;SDS011;9677;50.656;13.064;2023-11-19T09:04:13;9.60;;;8.80;;
19089;SDS011;9677;50.656;13.064;2023-11-19T09:06:42;9.40;;;8.60;;
19089;SDS011;9677;50.656;13.064;2023-11-19T09:09:10;9.50;;;8.70;;
19089;SDS011;9677;50.656;13.064;2023-11-19T09:11:39;10.00;;;9.10;;
19089;SDS011;9677;50.656;13.064;2023-11-19T09:14:07;9.93;;;9.03;;
19089;SDS011;9677;50.656;13.064;2023-11-19T09:16:36;9.93;;;9.13;;
19089;SDS011;9677;50.656;13.064;2023-11-19T09:19:05;9.93;;;9.03;;
19089;SDS011;9677;50.656;13.064;2023-11-19T09:21:33;9.70;;;8.80;;
19089;SDS011;9677;50.656;13.064;2023-11-19T09:24:04;9.87;;;9.03;;
19089;SDS011;9677;50.656;13.064;2023-11-19T09:26:34;9.50;;;8.70;;
19089;SDS011;9677;50.656;13.064;2023-11-19T09:29:02;10.07;;;9.17;;
19089;SDS011;9677;50.656;13.064;2023-11-19T09:31:31;9.90;;;9.03;;
19089;SDS011;9677;50.656;13.064;2023-11-19T09:34:00;9.60;;;8.80;;
19089;SDS011;9677;50.656;13.064;2023-11-19T09:36:29;9.50;;;8.67;;
19089;SDS011;9677;50.656;13.064;2023-11-19T09:38:57;12.50;;;8.93;;
19089;SDS011;9677;50.656;13.064;2023-11-19T09:41:26;9.40;;;8.60;;
19089;SDS011;9677;50.656;13.064;2023-11-19T09:43:55;10.10;;;9.10;;
19089;SDS011;9677;50.656;13.064;2023-11-19T09:46:23;9.60;;;8.80;;
19089;SDS011;9677;50.656;13.064;2023-11-19T09:48:52;9.73;;;8.87;;
19089;SDS011;9677;50.656;13.064;2023-11-19T09:51:23;9.50;;;8.70;;
19089;SDS011;9677;50.656;13.064;2023-11-19T09:53:51;9.70;;;8.90;;
19089;SDS011;9677;50.656;13.064;2023-11-19T09:56:20;9.57;;;8.77;;
19089;SDS011;9677;50.656;13.064;2023-11-19T09:58:48;9.77;;;8.90;;
19089;SDS011;9677;50.656;13.064;2023-11-19T10:01:16;9.60;;;8.80;;
19089;SDS011;9677;50.656;13.064;2023-11-19T10:03:54;9.10;;;8.40;;
19089;SDS011;9677;50.656;13.064;2023-11-19T10:06:25;9.73;;;8.63;;
19089;SDS011;9677;50.656;13.064;2023-11-19T10:08:54;9.63;;;8.83;;
19089;SDS011;9677;50.656;13.064;2023-11-19T10:11:22;9.30;;;8.60;;
19089;SDS011;9677;50.656;13.064;2023-11-19T10:13:51;9.27;;;8.57;;
19089;SDS011;9677;50.656;13.064;2023-11-19T10:16:22;9.70;;;8.90;;
19089;SDS011;9677;50.656;13.064;2023-11-19T10:18:57;9.83;;;9.03;;
19089;SDS011;9677;50.656;13.064;2023-11-19T10:21:27;9.50;;;8.70;;
19089;SDS011;9677;50.656;13.064;2023-11-19T10:23:58;9.73;;;8.93;;
19089;SDS011;9677;50.656;13.064;2023-11-19T10:26:27;9.50;;;8.70;;
19089;SDS011;9677;50.656;13.064;2023-11-19T10:28:56;9.50;;;8.70;;
19089;SDS011;9677;50.656;13.064;2023-11-19T10:31:24;9.90;;;9.00;;
19089;SDS011;9677;50.656;13.064;2023-11-19T10:33:53;10.20;;;9.20;;
19089;SDS011;9677;50.656;13.064;2023-11-19T10:36:22;9.80;;;8.90;;
19089;SDS011;9677;50.656;13.064;2023-11-19T10:39:08;9.80;;;8.90;;
19089;SDS011;9677;50.656;13.064;2023-11-19T10:41:36;10.03;;;9.13;;
19089;SDS011;9677;50.656;13.064;2023-11-19T10:44:05;9.90;;;8.90;;
19089;SDS011;9677;50.656;13.064;2023-11-19T10:46:36;9.87;;;8.87;;
19089;SDS011;9677;50.656;13.064;2023-11-19T10:49:06;9.60;;;8.80;;
19089;SDS011;9677;50.656;13.064;2023-11-19T10:51:35;10.10;;;9.10;;
19089;SDS011;9677;50.656;13.064;2023-11-19T10:54:05;11.33;;;9.10;;
19089;SDS011;9677;50.656;13.064;2023-11-19T10:56:34;10.17;;;9.17;;
19089;SDS011;9677;50.656;13.064;2023-11-19T10:59:02;9.53;;;8.70;;
19089;SDS011;9677;50.656;13.064;2023-11-19T11:01:49;10.50;;;9.50;;
19089;SDS011;9677;50.656;13.064;2023-11-19T11:04:22;10.33;;;9.30;;
19089;SDS011;9677;50.656;13.064;2023-11-19T11:06:54;10.00;;;9.00;;
19089;SDS011;9677;50.656;13.064;2023-11-19T11:09:27;12.40;;;9.40;;
19089;SDS011;9677;50.656;13.064;2023-11-19T11:11:55;10.00;;;9.00;;
19089;SDS011;9677;50.656;13.064;2023-11-19T11:14:25;10.37;;;9.00;;
19089;SDS011;9677;50.656;13.064;2023-11-19T11:16:54;10.87;;;9.40;;
19089;SDS011;9677;50.656;13.064;2023-11-19T11:19:24;10.20;;;9.20;;
19089;SDS011;9677;50.656;13.064;2023-11-19T11:21:53;11.57;;;9.13;;
19089;SDS011;9677;50.656;13.064;2023-11-19T11:24:37;10.27;;;9.17;;
19089;SDS011;9677;50.656;13.064;2023-11-19T11:27:46;14.73;;;9.37;;
19089;SDS011;9677;50.656;13.064;2023-11-19T11:30:42;9.90;;;9.00;;
19089;SDS011;9677;50.656;13.064;2023-11-19T11:33:29;9.87;;;8.97;;
19089;SDS011;9677;50.656;13.064;2023-11-19T11:36:11;9.87;;;8.97;;
19089;SDS011;9677;50.656;13.064;2023-11-19T11:38:47;9.60;;;8.70;;
19089;SDS011;9677;50.656;13.064;2023-11-19T11:41:19;9.50;;;8.70;;
19089;SDS011;9677;50.656;13.064;2023-11-19T11:43:54;10.83;;;8.83;;
19089;SDS011;9677;50.656;13.064;2023-11-19T11:49:26;9.53;;;8.70;;
19089;SDS011;9677;50.656;13.064;2023-11-19T11:51:58;9.60;;;8.60;;
19089;SDS011;9677;50.656;13.064;2023-11-19T11:54:33;9.93;;;9.03;;
19089;SDS011;9677;50.656;13.064;2023-11-19T11:57:05;9.90;;;8.90;;
19089;SDS011;9677;50.656;13.064;2023-11-19T11:59:48;9.90;;;8.90;;
19089;SDS011;9677;50.656;13.064;2023-11-19T12:02:17;9.80;;;8.90;;
19089;SDS011;9677;50.656;13.064;2023-11-19T12:04:48;9.70;;;8.80;;
19089;SDS011;9677;50.656;13.064;2023-11-19T12:07:19;10.10;;;9.20;;
19089;SDS011;9677;50.656;13.064;2023-11-19T12:09:51;10.00;;;9.00;;
19089;SDS011;9677;50.656;13.064;2023-11-19T12:12:25;10.73;;;9.00;;
19089;SDS011;9677;50.656;13.064;2023-11-19T12:15:03;9.60;;;8.70;;
19089;SDS011;9677;50.656;13.064;2023-11-19T12:17:37;9.50;;;8.60;;
19089;SDS011;9677;50.656;13.064;2023-11-19T12:20:11;9.63;;;8.80;;
19089;SDS011;9677;50.656;13.064;2023-11-19T12:22:40;9.73;;;8.83;;
19089;SDS011;9677;50.656;13.064;2023-11-19T12:25:10;10.57;;;9.47;;
19089;SDS011;9677;50.656;13.064;2023-11-19T12:27:43;10.60;;;9.10;;
19089;SDS011;9677;50.656;13.064;2023-11-19T12:30:12;10.17;;;9.07;;
19089;SDS011;9677;50.656;13.064;2023-11-19T12:32:45;9.63;;;8.67;;
19089;SDS011;9677;50.656;13.064;2023-11-19T12:35:13;9.53;;;8.63;;
19089;SDS011;9677;50.656;13.064;2023-11-19T12:37:41;9.47;;;8.57;;
19089;SDS011;9677;50.656;13.064;2023-11-19T12:40:14;10.40;;;8.90;;
19089;SDS011;9677;50.656;13.064;2023-11-19T12:42:45;10.13;;;8.70;;
19089;SDS011;9677;50.656;13.064;2023-11-19T12:45:13;9.13;;;8.40;;
19089;SDS011;9677;50.656;13.064;2023-11-19T12:47:43;9.57;;;8.67;;
19089;SDS011;9677;50.656;13.064;2023-11-19T12:50:13;9.77;;;8.50;;
19089;SDS011;9677;50.656;13.064;2023-11-19T12:52:43;9.57;;;8.67;;
19089;SDS011;9677;50.656;13.064;2023-11-19T12:55:27;9.40;;;8.60;;
19089;SDS011;9677;50.656;13.064;2023-11-19T12:57:58;9.70;;;8.80;;
19089;SDS011;9677;50.656;13.064;2023-11-19T13:00:27;9.10;;;8.37;;
19089;SDS011;9677;50.656;13.064;2023-11-19T13:02:56;9.63;;;8.73;;
19089;SDS011;9677;50.656;13.064;2023-11-19T13:05:26;10.77;;;8.80;;
19089;SDS011;9677;50.656;13.064;2023-11-19T13:07:58;10.10;;;8.93;;
19089;SDS011;9677;50.656;13.064;2023-11-19T13:10:27;12.80;;;9.70;;
19089;SDS011;9677;50.656;13.064;2023-11-19T13:13:02;10.03;;;9.00;;
19089;SDS011;9677;50.656;13.064;2023-11-19T13:15:32;10.00;;;9.00;;
19089;SDS011;9677;50.656;13.064;2023-11-19T13:18:01;10.13;;;9.20;;
19089;SDS011;9677;50.656;13.064;2023-11-19T13:20:30;9.50;;;8.70;;
19089;SDS011;9677;50.656;13.064;2023-11-19T13:22:59;10.13;;;9.13;;
19089;SDS011;9677;50.656;13.064;2023-11-19T13:25:29;13.53;;;10.30;;
19089;SDS011;9677;50.656;13.064;2023-11-19T13:27:58;9.63;;;8.73;;
19089;SDS011;9677;50.656;13.064;2023-11-19T13:30:28;10.40;;;9.27;;
19089;SDS011;9677;50.656;13.064;2023-11-19T13:32:56;9.47;;;8.63;;
19089;SDS011;9677;50.656;13.064;2023-11-19T13:35:25;9.60;;;8.70;;
19089;SDS011;9677;50.656;13.064;2023-11-19T13:37:54;9.90;;;9.00;;
19089;SDS011;9677;50.656;13.064;2023-11-19T13:40:22;9.90;;;9.00;;
19089;SDS011;9677;50.656;13.064;2023-11-19T13:42:51;9.97;;;8.93;;
19089;SDS011;9677;50.656;13.064;2023-11-19T13:45:19;10.13;;;9.10;;
19089;SDS011;9677;50.656;13.064;2023-11-19T13:47:49;10.13;;;9.13;;
19089;SDS011;9677;50.656;13.064;2023-11-19T13:50:17;10.17;;;9.17;;
19089;SDS011;9677;50.656;13.064;2023-11-19T13:52:45;10.13;;;9.03;;
19089;SDS011;9677;50.656;13.064;2023-11-19T13:55:14;10.27;;;9.20;;
19089;SDS011;9677;50.656;13.064;2023-11-19T13:57:42;10.10;;;9.10;;
19089;SDS011;9677;50.656;13.064;2023-11-19T14:00:11;11.83;;;9.10;;
19089;SDS011;9677;50.656;13.064;2023-11-19T14:02:43;10.07;;;9.00;;
19089;SDS011;9677;50.656;13.064;2023-11-19T14:05:13;13.93;;;9.43;;
19089;SDS011;9677;50.656;13.064;2023-11-19T14:08:02;10.37;;;9.40;;
19089;SDS011;9677;50.656;13.064;2023-11-19T14:10:49;9.80;;;8.80;;
19089;SDS011;9677;50.656;13.064;2023-11-19T14:13:17;10.60;;;9.50;;
19089;SDS011;9677;50.656;13.064;2023-11-19T14:15:45;11.00;;;9.13;;
19089;SDS011;9677;50.656;13.064;2023-11-19T14:18:16;9.80;;;8.90;;
19089;SDS011;9677;50.656;13.064;2023-11-19T14:20:45;13.03;;;9.03;;
19089;SDS011;9677;50.656;13.064;2023-11-19T14:23:13;12.23;;;9.43;;
19089;SDS011;9677;50.656;13.064;2023-11-19T14:25:42;9.73;;;8.80;;
19089;SDS011;9677;50.656;13.064;2023-11-19T14:28:10;9.60;;;8.70;;
19089;SDS011;9677;50.656;13.064;2023-11-19T14:30:39;10.20;;;9.10;;
19089;SDS011;9677;50.656;13.064;2023-11-19T14:33:08;10.10;;;9.10;;
19089;SDS011;9677;50.656;13.064;2023-11-19T14:35:36;10.13;;;9.13;;
19089;SDS011;9677;50.656;13.064;2023-11-19T14:38:06;11.10;;;9.20;;
19089;SDS011;9677;50.656;13.064;2023-11-19T14:40:36;9.60;;;8.60;;
19089;SDS011;9677;50.656;13.064;2023-11-19T14:43:07;9.80;;;8.90;;
19089;SDS011;9677;50.656;13.064;2023-11-19T14:45:37;10.03;;;9.03;;
19089;SDS011;9677;50.656;13.064;2023-11-19T14:48:15;10.10;;;8.83;;
19089;SDS011;9677;50.656;13.064;2023-11-19T14:50:44;10.50;;;9.20;;
19089;SDS011;9677;50.656;13.064;2023-11-19T14:53:13;9.90;;;9.00;;
19089;SDS011;9677;50.656;13.064;2023-11-19T14:55:42;9.70;;;8.90;;
19089;SDS011;9677;50.656;13.064;2023-11-19T14:58:10;9.83;;;8.83;;
19089;SDS011;9677;50.656;13.064;2023-11-19T15:00:42;9.50;;;8.70;;